Aplicació Alertes

Dades de l'estació automàtica Girona

?
?
Resum diari 23:00 TU
Dades diàries de l'estació meteorològica
Temperatura mitjana 6.5 °C
Temperatura màxima 19.2 °C 13:33 TU
Temperatura mínima -0.6 °C 4:03 TU
Humitat relativa mitjana 83%
Precipitació acumulada 0.0 mm
Ratxa màxima del vent (10 m) 10.8 km/h - 117º 12:36 TU
Pressió atmosfèrica mitjana 1021.3 hPa
Irradiació solar global 9.4 MJ/m2

El tram horari està expressat en Temps Universal (TU). Cal sumar una hora en horari d'hivern i dues en horari d'estiu per passar a l'hora oficial.

Girona

Metadades estació meteorol´gica
Municipi Girona
Comarca Gironès
Altitud 72 m
Data alta 15.09.2010
Estat actual Operativa
Dades de període
Període
TU
TM
°C
TX
°C
TN
°C
HRM
%
PPT
mm
VVM (10 m)
km/h
DVM (10 m)
graus
VVX (10 m)
km/h
PM
hPa
RS
W/m2
00:00 - 00:30 1.5 1.8 1.3 99 0.0 0.4 310 2.2 1021.3 0
00:30 - 01:00 1.1 1.4 0.7 99 0.0 0.4 276 2.9 1021.0 0
01:00 - 01:30 0.8 1.1 0.3 99 0.0 0.0 275 0.4 1020.8 0
01:30 - 02:00 0.6 1.1 0.3 99 0.0 1.4 263 4.7 1021.0 0
02:00 - 02:30 0.3 0.7 0.1 99 0.0 0.4 316 3.2 1021.0 0
02:30 - 03:00 0.1 0.4 -0.4 99 0.0 0.7 304 2.5 1020.8 0
03:00 - 03:30 -0.1 0.2 -0.5 99 0.0 1.1 315 3.2 1020.6 0
03:30 - 04:00 -0.4 0.0 -0.6 99 0.0 0.0 319 3.2 1020.6 0
04:00 - 04:30 -0.2 0.2 -0.6 99 0.0 0.4 319 2.9 1020.7 0
04:30 - 05:00 0.1 0.3 -0.1 99 0.0 0.4 319 1.8 1020.8 0
05:00 - 05:30 0.3 0.4 0.3 99 0.0 0.0 319 0.4 1020.8 0
05:30 - 06:00 0.7 1.1 0.4 99 0.0 0.0 319 1.1 1020.9 0
06:00 - 06:30 1.3 1.4 1.2 99 0.0 1.1 253 3.2 1021.0 0
06:30 - 07:00 1.3 1.5 1.0 99 0.0 1.1 261 3.6 1021.2 7
07:00 - 07:30 1.4 1.5 1.3 99 0.0 0.0 231 1.8 1021.5 41
07:30 - 08:00 2.2 3.1 1.5 99 0.0 0.0 334 1.8 1021.8 95
08:00 - 08:30 3.8 4.6 3.0 99 0.0 0.4 277 2.9 1021.9 177
08:30 - 09:00 5.7 7.0 4.6 93 0.0 0.4 236 2.9 1021.9 261
09:00 - 09:30 7.8 8.8 7.2 80 0.0 1.1 196 3.2 1021.9 327
09:30 - 10:00 9.8 10.7 8.7 73 0.0 1.4 174 5.4 1021.9 374
10:00 - 10:30 11.3 12.2 10.9 67 0.0 2.9 214 6.5 1021.9 412
10:30 - 11:00 13.4 14.4 12.4 62 0.0 3.2 165 6.5 1021.6 446
11:00 - 11:30 15.3 16.0 14.4 59 0.0 3.6 166 6.8 1021.1 465
11:30 - 12:00 16.7 17.3 16.2 60 0.0 4.0 164 9.0 1020.7 469
12:00 - 12:30 17.4 17.7 17.0 59 0.0 4.3 123 9.0 1020.6 450
12:30 - 13:00 17.7 18.1 17.3 55 0.0 5.0 163 10.8 1020.4 431
13:00 - 13:30 18.5 19.1 18.0 51 0.0 3.6 190 8.3 1020.1 384
13:30 - 14:00 18.8 19.2 18.5 49 0.0 2.9 197 7.2 1019.8 324
14:00 - 14:30 18.7 19.1 18.5 48 0.0 4.3 192 10.1 1019.6 269
14:30 - 15:00 18.6 18.9 18.3 44 0.0 3.6 201 7.2 1019.5 201
15:00 - 15:30 18.0 18.5 17.2 28 0.0 3.2 68 8.6 1019.7 93
15:30 - 16:00 16.1 17.1 14.8 39 0.0 0.7 82 5.0 1019.8 32
16:00 - 16:30 12.6 14.7 10.6 60 0.0 0.4 355 2.2 1020.1 7
16:30 - 17:00 9.6 10.5 8.3 71 0.0 1.4 328 5.4 1020.6 0
17:00 - 17:30 7.6 8.4 6.8 79 0.0 1.4 18 2.9 1021.0 0
17:30 - 18:00 6.5 7.0 5.8 86 0.0 1.1 337 3.6 1021.2 0
18:00 - 18:30 5.6 6.0 5.1 88 0.0 2.2 311 4.7 1021.5 0
18:30 - 19:00 4.9 5.3 4.4 91 0.0 0.0 9 1.4 1021.8 0
19:00 - 19:30 4.3 4.5 4.1 94 0.0 1.4 11 4.7 1022.2 0
19:30 - 20:00 3.7 4.1 3.3 95 0.0 1.1 358 2.9 1022.3 0
20:00 - 20:30 3.3 3.5 3.1 96 0.0 1.1 329 3.6 1022.6 0
20:30 - 21:00 2.8 3.5 2.1 97 0.0 0.4 358 2.9 1022.8 0
21:00 - 21:30 2.2 2.5 1.8 97 0.0 0.7 284 2.5 1023.2 0
21:30 - 22:00 1.9 2.1 1.6 98 0.0 0.4 312 2.2 1023.2 0
22:00 - 22:30 1.7 2.0 1.5 98 0.0 0.7 339 2.5 1023.3 0
22:30 - 23:00 1.3 1.6 0.9 98 0.0 0.4 305 2.5 1023.5 0
23:00 - 23:30 0.9 1.2 0.7 98 0.0 1.1 273 3.2 1023.5 0

Les dades en taronja només han passat un control de qualitat automàtic. Resta pendent la seva validació definitiva.